Time;durP1;ratioP1;P1;durP2;ratioP2;P2;SDS_P1;SDS_P2;PMS_P1;PMS_P2;Temp;Humidity;BMP_temperature;BMP_pressure;BME280_temperature;BME280_humidity;BME280_pressure;Samples;Min_cycle;Max_cycle;Signal;HPM_P1;HPM_P2
2021/07/31 00:04:07;;;;;;;4.18;3.88;;;;;;;22.08;51.19;99137.38;10471066;28;20037;-82
2021/07/31 00:09:09;;;;;;;4.15;3.80;;;;;;;22.24;51.23;99139.50;10470998;28;20473;-83
2021/07/31 00:14:10;;;;;;;4.03;3.72;;;;;;;22.28;51.06;99133.72;10471732;28;20044;-82
2021/07/31 00:19:12;;;;;;;3.85;3.55;;;;;;;22.17;51.29;99136.56;10469827;28;20052;-82
2021/07/31 00:24:14;;;;;;;4.28;3.95;;;;;;;22.19;51.30;99161.34;10471785;28;20041;-83
2021/07/31 00:29:15;;;;;;;4.15;3.75;;;;;;;22.10;51.79;99160.34;10469654;28;20056;-82
2021/07/31 00:34:17;;;;;;;4.15;3.78;;;;;;;22.10;51.77;99170.22;10470769;28;20127;-84
2021/07/31 00:39:18;;;;;;;3.75;3.45;;;;;;;22.04;51.78;99176.13;10468539;28;20087;-82
2021/07/31 00:44:20;;;;;;;5.25;3.80;;;;;;;22.01;51.72;99177.28;10470278;28;20040;-83
2021/07/31 00:49:22;;;;;;;3.90;3.60;;;;;;;21.94;52.05;99161.91;10469676;28;20116;-82
2021/07/31 00:54:24;;;;;;;4.03;3.72;;;;;;;21.95;51.97;99175.16;10467841;28;20049;-83
2021/07/31 00:59:26;;;;;;;4.35;3.95;;;;;;;21.98;51.79;99174.03;10468267;28;20041;-82
2021/07/31 01:04:28;;;;;;;4.32;4.03;;;;;;;21.82;52.09;99172.75;10469641;28;20041;-83
2021/07/31 01:09:30;;;;;;;3.72;3.42;;;;;;;21.88;51.87;99168.69;10474152;28;20049;-80
2021/07/31 01:14:31;;;;;;;4.15;3.38;;;;;;;21.79;52.07;99172.22;10490369;28;20064;-84
2021/07/31 01:19:33;;;;;;;4.13;3.83;;;;;;;21.71;52.62;99159.53;10491646;28;20041;-81
2021/07/31 01:24:36;;;;;;;5.55;3.65;;;;;;;21.66;52.70;99162.63;10486011;28;20045;-82
2021/07/31 01:29:38;;;;;;;4.28;3.97;;;;;;;21.66;52.62;99170.66;10438671;28;20042;-82
2021/07/31 01:34:41;;;;;;;4.40;4.00;;;;;;;21.51;52.74;99172.03;10468990;28;20133;-85
2021/07/31 01:39:43;;;;;;;4.53;4.13;;;;;;;21.53;52.92;99162.06;10470009;28;20147;-85
2021/07/31 01:44:44;;;;;;;4.18;3.83;;;;;;;21.43;53.04;99161.22;10452406;28;20521;-84
2021/07/31 01:49:46;;;;;;;4.05;3.63;;;;;;;21.46;53.02;99162.75;10469118;28;20059;-84
2021/07/31 01:54:48;;;;;;;3.67;3.38;;;;;;;21.31;53.44;99167.63;10469355;28;20037;-85
2021/07/31 01:59:51;;;;;;;4.13;3.40;;;;;;;21.39;52.90;99171.34;10467347;28;20147;-84
2021/07/31 02:04:53;;;;;;;4.30;3.90;;;;;;;21.35;53.11;99172.59;10469560;28;20033;-84
2021/07/31 02:09:58;;;;;;;4.03;3.72;;;;;;;21.16;53.67;99164.50;10467017;28;20160;-84
2021/07/31 02:15:00;;;;;;;4.18;3.88;;;;;;;21.19;53.54;99164.22;10450564;28;20056;-84
2021/07/31 02:20:04;;;;;;;7.63;3.47;;;;;;;21.13;53.58;99160.28;10473468;28;20045;-84
2021/07/31 02:25:25;;;;;;;16.25;4.18;;;;;;;21.11;53.44;99164.06;10475629;28;20045;-85
2021/07/31 02:30:49;;;;;;;3.85;3.50;;;;;;;21.05;53.70;99164.63;10438050;28;20483;-83
2021/07/31 02:35:51;;;;;;;3.67;3.38;;;;;;;21.09;53.23;99166.88;10459033;28;20079;-84
2021/07/31 02:41:09;;;;;;;4.03;3.72;;;;;;;21.17;53.11;99175.06;10476776;28;20117;-87
2021/07/31 02:46:13;;;;;;;4.50;3.47;;;;;;;21.28;52.87;99173.25;10460547;28;20045;-85
2021/07/31 02:51:18;;;;;;;3.83;3.47;;;;;;;21.40;52.37;99180.19;10475272;28;20045;-86
2021/07/31 02:56:37;;;;;;;3.45;3.15;;;;;;;21.44;52.50;99173.59;10479386;28;20147;-86
2021/07/31 03:01:44;;;;;;;4.25;3.90;;;;;;;21.52;52.33;99170.25;10477967;28;20128;-86
2021/07/31 03:06:47;;;;;;;4.13;3.83;;;;;;;21.53;52.35;99178.13;10476183;28;20068;-85
2021/07/31 03:11:51;;;;;;;4.72;3.15;;;;;;;21.42;52.51;99178.22;10475199;28;20049;-85
2021/07/31 03:16:55;;;;;;;3.78;3.47;;;;;;;21.47;52.46;99177.81;10459768;28;20064;-85
2021/07/31 03:21:57;;;;;;;3.47;3.22;;;;;;;21.49;52.47;99190.06;10458600;28;20053;-87
2021/07/31 03:27:11;;;;;;;3.75;3.25;;;;;;;21.58;51.94;99201.75;10475316;28;20387;-86
2021/07/31 03:32:35;;;;;;;4.68;3.42;;;;;;;21.44;51.98;99208.34;10478774;28;20048;-87
2021/07/31 03:37:37;;;;;;;3.22;3.03;;;;;;;21.42;51.96;99215.66;10479746;28;20041;-86
2021/07/31 03:42:39;;;;;;;3.65;3.35;;;;;;;21.48;51.61;99211.59;10464241;28;20061;-88
2021/07/31 03:47:41;;;;;;;3.05;2.83;;;;;;;21.62;51.27;99214.72;10481313;28;20061;-84
2021/07/31 03:52:43;;;;;;;4.28;3.28;;;;;;;21.55;51.69;99223.41;10481345;28;20041;-85
2021/07/31 03:57:45;;;;;;;3.78;3.47;;;;;;;21.55;52.05;99215.41;10460633;28;20108;-87
2021/07/31 04:02:48;;;;;;;3.88;3.58;;;;;;;21.52;52.23;99219.22;10473963;28;20196;-85
2021/07/31 04:07:50;;;;;;;4.80;3.63;;;;;;;21.50;52.72;99223.00;10473495;28;20033;-86
2021/07/31 04:13:24;;;;;;;4.18;3.35;;;;;;;21.47;52.72;99226.81;10474931;28;20051;-85
2021/07/31 04:18:31;;;;;;;3.35;3.15;;;;;;;21.48;52.87;99233.00;10474570;28;20215;-87
2021/07/31 04:23:33;;;;;;;3.05;2.65;;;;;;;21.45;52.32;99238.59;10475379;28;20040;-86
2021/07/31 04:28:35;;;;;;;3.70;2.78;;;;;;;21.52;52.22;99250.47;10480713;28;20132;-85
2021/07/31 04:33:37;;;;;;;3.33;3.00;;;;;;;21.51;51.92;99252.25;10497125;28;20174;-87
2021/07/31 04:38:38;;;;;;;4.60;3.30;;;;;;;21.46;52.19;99256.34;10495147;28;20072;-85
2021/07/31 04:43:40;;;;;;;3.38;3.05;;;;;;;21.38;52.05;99254.34;10479138;28;20052;-86
2021/07/31 04:48:41;;;;;;;3.13;2.65;;;;;;;21.25;52.34;99267.06;10493838;28;20044;-84
2021/07/31 04:53:43;;;;;;;3.03;2.83;;;;;;;21.15;52.80;99259.84;10495844;28;20079;-83
2021/07/31 04:58:45;;;;;;;3.67;3.17;;;;;;;21.10;52.50;99264.75;10489560;28;20483;-86
2021/07/31 05:03:46;;;;;;;3.45;2.78;;;;;;;21.09;53.04;99268.41;10476249;28;20044;-86
2021/07/31 05:08:50;;;;;;;3.05;2.85;;;;;;;21.13;52.94;99267.19;10473261;28;20045;-84
2021/07/31 05:13:51;;;;;;;2.97;2.47;;;;;;;21.09;52.62;99262.25;10476013;28;20057;-86
2021/07/31 05:18:53;;;;;;;2.50;2.30;;;;;;;21.27;52.11;99267.78;10487252;28;20075;-87
2021/07/31 05:23:55;;;;;;;3.10;2.47;;;;;;;21.25;52.36;99267.06;10466703;28;20495;-86
2021/07/31 05:28:56;;;;;;;3.55;2.20;;;;;;;21.40;52.38;99273.78;10484053;28;20076;-86
2021/07/31 05:33:58;;;;;;;2.88;2.00;;;;;;;21.61;50.71;99277.22;10475113;28;20053;-87
2021/07/31 05:38:59;;;;;;;2.47;1.80;;;;;;;21.54;49.63;99278.72;10457224;28;20133;-86
2021/07/31 05:44:01;;;;;;;2.75;1.73;;;;;;;21.49;50.05;99272.97;10476027;28;20045;-86
2021/07/31 05:49:03;;;;;;;2.67;1.90;;;;;;;21.87;48.81;99279.38;10474368;28;20045;-87
2021/07/31 05:54:04;;;;;;;3.33;1.80;;;;;;;21.88;49.46;99279.22;10481906;28;20055;-87
2021/07/31 05:59:06;;;;;;;2.65;1.75;;;;;;;21.89;48.49;99280.91;10484795;28;20041;-86
2021/07/31 06:04:07;;;;;;;2.47;1.88;;;;;;;22.13;48.37;99285.03;10484093;28;20059;-86
2021/07/31 06:09:09;;;;;;;4.80;1.85;;;;;;;22.50;48.90;99281.66;10478001;28;20045;-82
2021/07/31 06:14:10;;;;;;;2.90;1.90;;;;;;;23.08;47.35;99270.81;10472393;28;20045;-83
2021/07/31 06:19:12;;;;;;;3.40;1.92;;;;;;;23.47;45.34;99273.34;10477338;28;20117;-83
2021/07/31 06:24:14;;;;;;;3.38;1.30;;;;;;;23.56;42.91;99267.91;10500372;28;20049;-81
2021/07/31 06:29:16;;;;;;;3.45;1.30;;;;;;;23.56;40.75;99273.28;10500981;28;20045;-82
2021/07/31 06:34:18;;;;;;;3.25;1.40;;;;;;;23.88;41.31;99270.13;10507241;28;20041;-83
2021/07/31 06:39:20;;;;;;;3.13;1.50;;;;;;;23.66;41.19;99282.13;10503658;28;20048;-83
2021/07/31 06:44:22;;;;;;;3.00;1.30;;;;;;;23.47;41.72;99287.59;10504081;28;20044;-82
2021/07/31 06:49:23;;;;;;;3.65;1.10;;;;;;;23.87;40.18;99281.03;10486044;28;20089;-81
2021/07/31 06:54:25;;;;;;;1.80;1.00;;;;;;;23.70;40.53;99289.88;10503120;28;20104;-81
2021/07/31 06:59:26;;;;;;;1.90;0.80;;;;;;;23.83;40.64;99285.00;10485195;28;20041;-81
2021/07/31 07:04:28;;;;;;;1.30;0.90;;;;;;;23.97;39.18;99286.31;10500643;28;20055;-81
2021/07/31 07:09:30;;;;;;;3.75;0.93;;;;;;;23.90;39.26;99278.84;10483421;28;20155;-83
2021/07/31 07:14:34;;;;;;;2.13;0.70;;;;;;;23.68;39.77;99287.34;10483143;28;20045;-83
2021/07/31 07:19:36;;;;;;;1.95;0.98;;;;;;;23.50;41.47;99279.22;10501575;28;20047;-82
2021/07/31 07:24:38;;;;;;;4.07;0.80;;;;;;;23.73;39.59;99282.38;10503022;28;20040;-82
2021/07/31 07:29:39;;;;;;;2.53;0.80;;;;;;;23.79;39.11;99280.94;10506172;28;20028;-82
2021/07/31 07:34:41;;;;;;;1.25;0.95;;;;;;;23.47;38.69;99290.25;10505548;28;20061;-82
2021/07/31 07:39:43;;;;;;;1.92;0.70;;;;;;;23.55;38.36;99282.31;10506495;28;20036;-81
2021/07/31 07:44:44;;;;;;;1.58;0.77;;;;;;;23.26;38.54;99298.53;10503538;28;20104;-82
2021/07/31 07:49:46;;;;;;;2.80;0.82;;;;;;;23.67;38.84;99293.69;10499652;28;20047;-83
2021/07/31 07:54:47;;;;;;;5.80;0.85;;;;;;;23.82;38.33;99294.06;10498809;28;20056;-82
2021/07/31 07:59:49;;;;;;;2.42;0.95;;;;;;;23.56;38.63;99292.03;10474032;28;20045;-84
2021/07/31 08:04:50;;;;;;;2.40;0.70;;;;;;;23.64;38.41;99286.81;10473535;28;20045;-84
2021/07/31 08:09:52;;;;;;;2.28;0.60;;;;;;;23.66;38.69;99290.19;10475345;28;20087;-84
2021/07/31 08:14:54;;;;;;;2.13;0.80;;;;;;;23.69;38.31;99289.03;10476056;28;20077;-85
2021/07/31 08:19:56;;;;;;;1.45;0.77;;;;;;;23.98;39.32;99285.31;10475741;28;20056;-85
2021/07/31 08:24:57;;;;;;;1.65;0.73;;;;;;;24.17;37.70;99286.00;10472630;28;20469;-84
2021/07/31 08:29:59;;;;;;;6.30;1.20;;;;;;;23.94;36.45;99294.66;10473028;28;20049;-84
2021/07/31 08:35:00;;;;;;;2.25;0.70;;;;;;;23.92;37.60;99290.28;10466980;28;20090;-84
2021/07/31 08:40:02;;;;;;;1.58;0.68;;;;;;;24.23;37.48;99287.22;10467436;28;20088;-84
2021/07/31 08:45:04;;;;;;;3.90;0.80;;;;;;;24.35;39.07;99285.16;10471953;28;20060;-84
2021/07/31 08:50:09;;;;;;;2.75;0.73;;;;;;;24.73;37.13;99278.59;10468297;28;20045;-86
2021/07/31 08:55:11;;;;;;;2.63;0.95;;;;;;;24.94;37.51;99274.69;10450565;28;20125;-83
2021/07/31 09:00:13;;;;;;;2.60;0.75;;;;;;;25.00;36.88;99285.63;10468331;28;20111;-84
2021/07/31 09:05:32;;;;;;;1.60;0.70;;;;;;;24.52;37.13;99275.41;10464573;28;20063;-82
2021/07/31 09:10:40;;;;;;;1.50;0.90;;;;;;;24.95;37.26;99261.09;10464399;28;20037;-83
2021/07/31 09:15:44;;;;;;;5.35;1.02;;;;;;;25.69;36.66;99262.28;10447228;28;20056;-83
2021/07/31 09:20:55;;;;;;;1.70;1.00;;;;;;;26.07;35.33;99262.69;10447202;28;20045;-83
2021/07/31 09:26:01;;;;;;;2.35;1.00;;;;;;;25.92;35.44;99262.50;10434925;28;20143;-84
2021/07/31 09:31:02;;;;;;;1.90;1.10;;;;;;;26.42;37.45;99261.53;10460229;28;20095;-83
2021/07/31 09:36:04;;;;;;;4.00;0.85;;;;;;;26.56;36.48;99268.97;10478905;28;20124;-83
2021/07/31 09:41:21;;;;;;;2.42;0.80;;;;;;;26.30;35.59;99273.69;10478349;28;20502;-83
2021/07/31 09:46:43;;;;;;;2.95;0.90;;;;;;;26.10;35.05;99263.22;10461365;28;20103;-83
2021/07/31 09:51:49;;;;;;;1.55;0.80;;;;;;;26.37;34.62;99275.50;10484277;28;20049;-82
2021/07/31 09:56:53;;;;;;;5.80;0.90;;;;;;;25.76;34.41;99266.00;10480538;28;20048;-82
2021/07/31 10:01:59;;;;;;;1.58;0.73;;;;;;;26.73;33.22;99255.47;10479228;28;20079;-82
2021/07/31 10:07:02;;;;;;;3.53;0.80;;;;;;;26.73;34.66;99256.31;10479402;28;20056;-82
2021/07/31 10:12:05;;;;;;;2.25;0.70;;;;;;;26.87;35.20;99252.94;10474337;28;20048;-83
2021/07/31 10:17:08;;;;;;;3.00;0.93;;;;;;;27.08;33.26;99251.50;10459403;28;20037;-83
2021/07/31 10:22:11;;;;;;;1.48;0.90;;;;;;;27.25;33.62;99247.75;10476767;28;20045;-84
2021/07/31 10:27:15;;;;;;;1.50;0.77;;;;;;;27.09;32.93;99258.59;10478699;28;20048;-81
2021/07/31 10:32:29;;;;;;;2.85;0.70;;;;;;;26.94;32.05;99263.00;10476839;28;20055;-83
2021/07/31 10:37:32;;;;;;;1.10;0.60;;;;;;;27.22;33.40;99258.06;10472897;28;20103;-84
2021/07/31 10:42:46;;;;;;;1.33;0.65;;;;;;;27.52;32.62;99259.94;10469758;28;20494;-83
2021/07/31 10:47:53;;;;;;;1.77;0.93;;;;;;;27.20;32.80;99262.81;10472456;28;20060;-84
2021/07/31 10:53:01;;;;;;;3.40;0.80;;;;;;;27.37;32.67;99264.41;10471701;28;20116;-85
2021/07/31 10:58:19;;;;;;;2.35;0.60;;;;;;;27.74;31.33;99254.81;10454817;28;20068;-86
2021/07/31 11:03:21;;;;;;;0.80;0.50;;;;;;;27.85;32.19;99254.41;10471769;28;20105;-86
2021/07/31 11:08:24;;;;;;;1.40;0.50;;;;;;;28.09;30.72;99246.13;10472807;28;20079;-86
2021/07/31 11:13:28;;;;;;;2.58;0.73;;;;;;;27.91;32.65;99243.72;10459482;28;20037;-82
2021/07/31 11:18:36;;;;;;;3.63;0.50;;;;;;;28.07;31.97;99250.88;10489294;28;20036;-85
2021/07/31 11:23:42;;;;;;;1.92;0.52;;;;;;;27.54;32.15;99241.72;10488807;28;20040;-83
2021/07/31 11:28:44;;;;;;;2.13;0.60;;;;;;;27.66;32.64;99244.84;10485321;28;20037;-83
2021/07/31 11:34:08;;;;;;;1.10;0.60;;;;;;;27.49;31.07;99249.50;10485415;28;20048;-86
2021/07/31 11:39:10;;;;;;;1.65;0.57;;;;;;;27.39;31.56;99248.88;10481387;28;20084;-85
2021/07/31 11:44:22;;;;;;;0.75;0.45;;;;;;;27.81;31.52;99243.13;10460145;28;20049;-85
2021/07/31 11:49:24;;;;;;;2.05;0.55;;;;;;;27.85;30.11;99232.81;10457079;28;20406;-86
2021/07/31 11:54:27;;;;;;;2.40;0.50;;;;;;;27.76;30.77;99237.41;10467842;28;20470;-83
2021/07/31 11:59:30;;;;;;;7.13;0.65;;;;;;;27.38;32.23;99241.81;10469469;28;20060;-85
2021/07/31 12:04:50;;;;;;;2.30;0.73;;;;;;;27.22;30.53;99233.78;10454834;28;20052;-85
2021/07/31 12:10:09;;;;;;;2.20;0.55;;;;;;;27.43;32.19;99231.31;10470114;28;20049;-85
2021/07/31 12:15:26;;;;;;;1.20;0.70;;;;;;;28.00;30.46;99224.75;10470226;28;20068;-83
2021/07/31 12:20:37;;;;;;;2.40;0.50;;;;;;;28.76;30.40;99231.03;10452901;28;20395;-84
2021/07/31 12:25:56;;;;;;;0.47;0.40;;;;;;;27.93;30.17;99230.03;10434984;28;20479;-84
2021/07/31 12:30:58;;;;;;;1.85;0.60;;;;;;;28.31;30.67;99238.19;10468985;28;20045;-84
2021/07/31 12:36:00;;;;;;;1.65;0.68;;;;;;;28.13;31.26;99227.69;10452544;28;20055;-84
2021/07/31 12:41:02;;;;;;;1.85;0.70;;;;;;;28.06;30.53;99234.84;10471523;28;20067;-84
2021/07/31 12:46:05;;;;;;;2.22;0.85;;;;;;;27.78;32.18;99231.84;10440424;28;20052;-85
2021/07/31 12:51:07;;;;;;;6.28;0.75;;;;;;;27.59;30.47;99225.00;10454505;28;20083;-86
2021/07/31 12:56:09;;;;;;;2.13;0.70;;;;;;;28.04;31.07;99229.63;10470707;28;20386;-81
2021/07/31 13:01:11;;;;;;;16.77;1.50;;;;;;;28.15;29.96;99225.63;10466767;28;20045;-83
2021/07/31 13:06:12;;;;;;;2.22;0.63;;;;;;;28.06;30.67;99224.88;10469140;28;20060;-84
2021/07/31 13:11:16;;;;;;;1.50;0.60;;;;;;;27.96;31.27;99226.13;10467399;28;20041;-85
2021/07/31 13:16:17;;;;;;;2.40;0.80;;;;;;;27.87;32.02;99237.00;10467410;28;20041;-84
2021/07/31 13:21:19;;;;;;;1.38;1.02;;;;;;;27.76;31.68;99223.06;10468384;28;20037;-81
2021/07/31 13:26:21;;;;;;;1.85;0.80;;;;;;;27.49;30.81;99219.81;10452455;28;20079;-83
2021/07/31 13:31:22;;;;;;;1.45;0.70;;;;;;;27.43;33.02;99236.72;10468264;28;20044;-84
2021/07/31 13:36:24;;;;;;;2.15;0.80;;;;;;;27.27;33.00;99229.56;10471205;28;20150;-86
2021/07/31 13:41:25;;;;;;;2.72;0.90;;;;;;;26.60;32.73;99237.13;10490158;28;20068;-80
2021/07/31 13:46:27;;;;;;;1.50;1.08;;;;;;;26.79;32.34;99230.53;10499833;28;20029;-84
2021/07/31 13:51:28;;;;;;;2.42;0.82;;;;;;;26.67;34.25;99241.66;10498067;28;20041;-82
2021/07/31 13:56:32;;;;;;;4.93;0.77;;;;;;;27.05;34.11;99247.31;10488908;28;20116;-83
2021/07/31 14:01:34;;;;;;;3.97;0.90;;;;;;;27.17;32.13;99248.63;10473001;28;20072;-85
2021/07/31 14:06:36;;;;;;;2.63;0.60;;;;;;;26.95;33.04;99260.13;10469660;28;20044;-83
2021/07/31 14:11:38;;;;;;;2.40;0.73;;;;;;;26.92;32.53;99266.72;10475876;28;20048;-83
2021/07/31 14:16:42;;;;;;;5.03;0.80;;;;;;;25.90;33.88;99264.53;10478332;28;20071;-84
2021/07/31 14:21:44;;;;;;;0.93;0.70;;;;;;;26.29;34.03;99259.34;10479149;28;20045;-85
2021/07/31 14:26:46;;;;;;;2.92;0.70;;;;;;;26.51;33.38;99265.94;10479658;28;20054;-83
2021/07/31 14:31:51;;;;;;;2.50;0.90;;;;;;;25.90;34.55;99262.69;10479546;28;20166;-83
2021/07/31 14:36:53;;;;;;;4.15;0.90;;;;;;;26.38;34.54;99263.72;10483453;28;20475;-84
2021/07/31 14:41:54;;;;;;;2.13;0.70;;;;;;;26.43;33.09;99263.22;10472618;28;20041;-80
2021/07/31 14:46:56;;;;;;;9.63;0.77;;;;;;;26.59;33.43;99274.00;10482932;28;20135;-81
2021/07/31 14:51:58;;;;;;;2.80;0.73;;;;;;;26.35;32.20;99268.63;10475072;28;20048;-81
2021/07/31 14:56:59;;;;;;;3.00;0.80;;;;;;;26.27;33.58;99264.06;10475576;28;20076;-79
2021/07/31 15:02:01;;;;;;;3.95;0.70;;;;;;;25.89;33.62;99246.69;10470635;28;20049;-80
2021/07/31 15:07:03;;;;;;;2.72;0.63;;;;;;;25.77;33.69;99246.19;10455671;28;20055;-80
2021/07/31 15:12:04;;;;;;;1.25;0.77;;;;;;;25.76;33.13;99247.16;10468067;28;20041;-81
2021/07/31 15:17:06;;;;;;;2.38;0.70;;;;;;;25.71;33.88;99245.94;10455270;28;20064;-81
2021/07/31 15:22:08;;;;;;;2.13;0.82;;;;;;;25.85;34.23;99248.88;10463657;28;20139;-80
2021/07/31 15:27:10;;;;;;;1.60;0.60;;;;;;;26.01;33.34;99241.81;10465594;28;20071;-80
2021/07/31 15:32:12;;;;;;;2.85;0.82;;;;;;;25.82;33.97;99251.06;10465216;28;20510;-80
2021/07/31 15:37:13;;;;;;;2.58;0.73;;;;;;;25.71;34.14;99254.03;10463754;28;20103;-82
2021/07/31 15:42:15;;;;;;;2.33;0.70;;;;;;;25.66;33.71;99255.34;10463690;28;20069;-80
2021/07/31 15:47:16;;;;;;;3.63;0.70;;;;;;;25.62;33.24;99254.00;10445143;28;20479;-80
2021/07/31 15:52:18;;;;;;;1.50;0.80;;;;;;;25.81;33.92;99261.00;10464849;28;20041;-81
2021/07/31 15:57:20;;;;;;;2.22;0.80;;;;;;;26.19;33.17;99255.13;10463788;28;20048;-78
2021/07/31 16:02:21;;;;;;;1.85;0.80;;;;;;;26.38;33.28;99244.84;10465721;28;20110;-78
2021/07/31 16:07:23;;;;;;;2.25;1.17;;;;;;;26.85;32.57;99246.00;10463316;28;20478;-79
2021/07/31 16:12:26;;;;;;;2.88;0.90;;;;;;;26.78;32.21;99240.44;10462900;28;20037;-81
2021/07/31 16:17:28;;;;;;;1.02;0.80;;;;;;;26.49;32.97;99229.41;10462333;28;20077;-79
2021/07/31 16:22:29;;;;;;;1.75;0.70;;;;;;;26.19;33.11;99255.13;10463449;28;20041;-78
2021/07/31 16:27:32;;;;;;;4.65;0.93;;;;;;;25.38;34.12;99244.00;10461345;28;20103;-79
2021/07/31 16:32:33;;;;;;;1.00;0.70;;;;;;;25.24;34.01;99244.63;10464030;28;20111;-80
2021/07/31 16:37:37;;;;;;;1.38;0.90;;;;;;;24.99;35.08;99249.00;10463005;28;20055;-79
2021/07/31 16:42:39;;;;;;;3.70;1.27;;;;;;;25.06;35.88;99238.47;10444718;28;20041;-81
2021/07/31 16:47:41;;;;;;;2.30;0.55;;;;;;;24.78;35.55;99240.47;10461188;28;20053;-79
2021/07/31 16:52:42;;;;;;;1.52;0.90;;;;;;;24.96;35.51;99249.31;10461014;28;20049;-80
2021/07/31 16:57:44;;;;;;;1.60;0.93;;;;;;;24.92;34.50;99242.56;10464452;28;20158;-79
2021/07/31 17:02:46;;;;;;;4.28;0.70;;;;;;;24.74;35.44;99252.53;10463618;28;20049;-80
2021/07/31 17:07:47;;;;;;;3.17;0.77;;;;;;;24.59;35.43;99258.50;10463813;28;20099;-79
2021/07/31 17:12:49;;;;;;;0.65;0.65;;;;;;;24.34;36.38;99262.81;10462323;28;20051;-80
2021/07/31 17:17:50;;;;;;;3.10;0.80;;;;;;;24.29;36.57;99258.91;10460538;28;20190;-80
2021/07/31 17:22:54;;;;;;;1.17;0.70;;;;;;;24.37;36.30;99261.69;10478915;28;20048;-79
2021/07/31 17:27:55;;;;;;;2.35;0.85;;;;;;;24.41;36.41;99268.44;10474355;28;20052;-80
2021/07/31 17:32:57;;;;;;;2.83;1.02;;;;;;;24.13;37.16;99257.78;10493792;28;20060;-79
2021/07/31 17:38:00;;;;;;;1.77;0.88;;;;;;;24.24;36.77;99270.13;10477908;28;20045;-79
2021/07/31 17:43:02;;;;;;;2.45;0.70;;;;;;;24.26;36.07;99273.50;10464260;28;20067;-81
2021/07/31 17:48:04;;;;;;;2.38;1.58;;;;;;;24.07;38.14;99281.69;10469528;28;20045;-81
2021/07/31 17:53:05;;;;;;;1.70;0.90;;;;;;;24.24;36.76;99286.22;10453740;28;20414;-79
2021/07/31 17:58:09;;;;;;;1.58;0.80;;;;;;;24.30;36.28;99279.38;10437082;28;20053;-81
2021/07/31 18:03:10;;;;;;;3.20;0.90;;;;;;;23.93;37.26;99280.41;10478714;28;20467;-81
2021/07/31 18:08:12;;;;;;;2.75;1.13;;;;;;;23.84;37.27;99289.38;10488092;28;20041;-77
2021/07/31 18:13:13;;;;;;;2.88;0.70;;;;;;;23.75;37.45;99288.44;10500018;28;20092;-81
2021/07/31 18:18:15;;;;;;;1.02;0.75;;;;;;;23.71;37.99;99288.88;10495740;28;20052;-80
2021/07/31 18:23:16;;;;;;;2.00;0.80;;;;;;;23.64;37.70;99289.50;10496015;28;20045;-80
2021/07/31 18:28:18;;;;;;;2.00;0.70;;;;;;;23.58;37.99;99295.41;10489160;28;20116;-81
2021/07/31 18:33:20;;;;;;;1.60;0.90;;;;;;;23.37;38.49;99300.16;10480768;28;20096;-76
2021/07/31 18:38:21;;;;;;;2.00;0.85;;;;;;;23.33;38.47;99305.00;10480648;28;20048;-80
2021/07/31 18:43:23;;;;;;;8.10;0.90;;;;;;;23.26;38.63;99316.47;10468205;28;20053;-80
2021/07/31 18:48:25;;;;;;;1.40;1.02;;;;;;;23.19;39.08;99329.59;10466411;28;20526;-80
2021/07/31 18:53:26;;;;;;;2.95;1.10;;;;;;;22.88;40.91;99347.69;10468687;28;20132;-81
2021/07/31 18:58:28;;;;;;;1.60;0.80;;;;;;;22.58;41.27;99360.31;10465863;28;20565;-80
2021/07/31 19:03:31;;;;;;;10.55;9.55;;;;;;;22.51;42.10;99364.53;10464811;28;20052;-81
2021/07/31 19:08:34;;;;;;;25.80;22.95;;;;;;;22.57;40.94;99363.94;10468233;28;20060;-80
2021/07/31 19:13:36;;;;;;;29.75;26.75;;;;;;;22.76;40.58;99370.31;10465694;28;20060;-80
2021/07/31 19:18:38;;;;;;;20.98;19.35;;;;;;;22.63;41.15;99365.25;10472009;28;20099;-80
2021/07/31 19:23:40;;;;;;;26.67;24.08;;;;;;;22.50;42.15;99367.34;10452873;28;20111;-81
2021/07/31 19:28:41;;;;;;;16.70;12.80;;;;;;;22.13;42.70;99365.34;10467738;28;20049;-81
2021/07/31 19:33:43;;;;;;;7.53;6.82;;;;;;;21.86;43.35;99360.59;10467730;28;20052;-81
2021/07/31 19:38:45;;;;;;;3.88;3.03;;;;;;;21.74;43.88;99365.25;10449405;28;20045;-79
2021/07/31 19:43:47;;;;;;;3.92;1.77;;;;;;;21.86;42.97;99368.63;10465778;28;20053;-81
2021/07/31 19:48:49;;;;;;;4.32;2.00;;;;;;;21.88;43.17;99374.72;10466753;28;20112;-81
2021/07/31 19:53:50;;;;;;;4.60;1.45;;;;;;;21.79;43.24;99386.22;10468366;28;20044;-81
2021/07/31 19:58:52;;;;;;;3.75;1.60;;;;;;;21.46;43.84;99385.50;10469130;28;20045;-80
2021/07/31 20:03:53;;;;;;;4.13;1.15;;;;;;;21.24;44.46;99386.50;10491362;28;20061;-79
2021/07/31 20:08:55;;;;;;;4.55;1.25;;;;;;;21.22;45.02;99391.16;10498776;28;20091;-80
2021/07/31 20:13:56;;;;;;;4.18;1.00;;;;;;;21.14;45.15;99388.28;10503313;28;20033;-84
2021/07/31 20:18:58;;;;;;;2.47;1.20;;;;;;;20.99;45.13;99395.78;10485145;28;20049;-83
2021/07/31 20:24:00;;;;;;;4.63;1.30;;;;;;;20.89;45.72;99397.53;10445590;28;20053;-84
2021/07/31 20:29:02;;;;;;;2.45;1.20;;;;;;;20.65;46.75;99405.78;10478989;28;20068;-85
2021/07/31 20:34:03;;;;;;;3.92;1.60;;;;;;;20.47;47.61;99399.28;10460241;28;20068;-85
2021/07/31 20:39:05;;;;;;;4.47;2.10;;;;;;;20.49;47.24;99408.03;10461162;28;20086;-89
2021/07/31 20:44:08;;;;;;;3.58;1.50;;;;;;;20.44;48.13;99408.38;10458512;28;20074;-87
2021/07/31 20:49:10;;;;;;;3.00;1.45;;;;;;;20.40;48.01;99401.59;10476738;28;20146;-85
2021/07/31 20:54:12;;;;;;;2.00;1.20;;;;;;;20.39;48.47;99403.41;10476291;28;20045;-86
2021/07/31 20:59:14;;;;;;;2.42;1.70;;;;;;;20.29;48.46;99399.81;10481348;28;20040;-87
2021/07/31 21:04:15;;;;;;;2.38;1.52;;;;;;;20.24;49.00;99403.84;10463675;28;20072;-85
2021/07/31 21:09:17;;;;;;;3.28;1.60;;;;;;;20.08;48.91;99405.09;10458273;28;20103;-87
2021/07/31 21:14:18;;;;;;;2.65;1.80;;;;;;;20.15;48.93;99405.44;10457677;28;20076;-86
2021/07/31 21:19:21;;;;;;;3.60;1.42;;;;;;;20.14;49.01;99401.06;10476886;28;20037;-86
2021/07/31 21:24:22;;;;;;;2.05;1.27;;;;;;;20.07;49.00;99418.56;10455551;28;20041;-84
2021/07/31 21:29:24;;;;;;;2.72;1.23;;;;;;;20.17;48.37;99423.00;10478114;28;20099;-85
2021/07/31 21:34:25;;;;;;;1.67;1.38;;;;;;;20.11;48.21;99438.69;10499813;28;20089;-86
2021/07/31 21:39:28;;;;;;;4.53;1.60;;;;;;;20.14;48.40;99425.94;10479215;28;20502;-86
2021/07/31 21:44:30;;;;;;;3.78;1.65;;;;;;;20.24;47.96;99430.53;10459434;28;20099;-85
2021/07/31 21:49:31;;;;;;;2.58;1.70;;;;;;;19.98;48.92;99430.81;10459448;28;20041;-84
2021/07/31 21:54:35;;;;;;;3.80;1.58;;;;;;;20.02;48.81;99432.28;10461028;28;20466;-84
2021/07/31 21:59:37;;;;;;;4.93;1.90;;;;;;;19.85;50.18;99427.44;10462451;28;20037;-84
2021/07/31 22:04:38;;;;;;;3.78;1.50;;;;;;;19.79;49.97;99433.25;10461225;28;20041;-84
2021/07/31 22:09:40;;;;;;;2.35;1.40;;;;;;;19.48;51.31;99417.00;10459585;28;20408;-85
2021/07/31 22:14:41;;;;;;;6.05;1.63;;;;;;;19.51;50.48;99431.88;10446777;28;20045;-84
2021/07/31 22:19:43;;;;;;;3.42;1.65;;;;;;;19.47;50.41;99423.25;10466332;28;20045;-86
2021/07/31 22:24:44;;;;;;;2.88;1.83;;;;;;;19.33;50.88;99418.16;10462637;28;20075;-83
2021/07/31 22:29:46;;;;;;;3.78;1.73;;;;;;;19.19;51.93;99421.91;10461993;28;20402;-85
2021/07/31 22:34:47;;;;;;;2.95;1.73;;;;;;;19.12;51.48;99418.88;10468559;28;20057;-83
2021/07/31 22:39:50;;;;;;;3.88;1.50;;;;;;;18.98;51.77;99415.56;10453590;28;20072;-83
2021/07/31 22:44:51;;;;;;;3.05;1.40;;;;;;;18.93;52.02;99415.06;10469310;28;20520;-85
2021/07/31 22:49:53;;;;;;;2.65;1.92;;;;;;;18.79;52.15;99408.13;10468493;28;20048;-84
2021/07/31 22:54:55;;;;;;;2.70;1.60;;;;;;;18.75;52.38;99410.16;10450008;28;20097;-83
2021/07/31 22:59:56;;;;;;;1.92;1.42;;;;;;;18.86;51.62;99396.91;10467885;28;20099;-85
2021/07/31 23:04:58;;;;;;;4.03;1.65;;;;;;;18.71;52.71;99416.69;10469534;28;20063;-84
2021/07/31 23:09:59;;;;;;;3.50;1.70;;;;;;;18.61;53.13;99428.97;10499191;28;20045;-84
2021/07/31 23:15:01;;;;;;;5.13;1.90;;;;;;;18.71;52.90;99445.13;10472079;28;20084;-83
2021/07/31 23:20:03;;;;;;;4.22;2.35;;;;;;;18.51;53.77;99438.59;10469202;28;20041;-84
2021/07/31 23:25:05;;;;;;;2.72;1.60;;;;;;;18.54;53.39;99441.84;10469234;28;20060;-84
2021/07/31 23:30:07;;;;;;;3.10;1.55;;;;;;;18.35;53.97;99431.72;10470400;28;20037;-83